createdAt,value
2019-04-11T00:01:35.803Z,10.30
2019-04-11T00:03:57.715Z,10.31
2019-04-11T00:06:27.698Z,10.34
2019-04-11T00:08:58.503Z,10.37
2019-04-11T00:11:28.292Z,10.34
2019-04-11T00:13:57.886Z,10.33
2019-04-11T00:16:27.435Z,10.32
2019-04-11T00:18:57.023Z,10.31
2019-04-11T00:21:26.727Z,10.29
2019-04-11T00:23:56.619Z,10.25
2019-04-11T00:26:26.484Z,10.17
2019-04-11T00:28:56.289Z,10.11
2019-04-11T00:31:26.019Z,10.03
2019-04-11T00:33:56.335Z,10.00
2019-04-11T00:36:26.517Z,9.95
2019-04-11T00:38:57.234Z,9.91
2019-04-11T00:41:28.108Z,9.89
2019-04-11T00:43:58.696Z,9.85
2019-04-11T00:46:28.710Z,9.83
2019-04-11T00:48:58.325Z,9.82
2019-04-11T00:51:27.883Z,9.77
2019-04-11T00:53:58.341Z,9.68
2019-04-11T00:56:28.385Z,9.64
2019-04-11T00:58:58.346Z,9.63
2019-04-11T01:01:28.176Z,9.55
2019-04-11T01:03:57.792Z,9.58
2019-04-11T01:06:27.982Z,9.57
2019-04-11T01:08:57.835Z,9.63
2019-04-11T01:11:27.857Z,9.68
2019-04-11T01:13:57.568Z,9.73
2019-04-11T01:16:55.251Z,9.79
2019-04-11T01:19:24.965Z,9.77
2019-04-11T01:21:54.968Z,9.76
2019-04-11T01:24:25.938Z,9.77
2019-04-11T01:26:55.769Z,9.81
2019-04-11T01:29:25.331Z,9.85
2019-04-11T01:32:00.182Z,9.81
2019-04-11T01:34:30.774Z,9.84
2019-04-11T01:37:01.601Z,9.82
2019-04-11T01:39:41.350Z,9.88
2019-04-11T01:42:11.173Z,9.93
2019-04-11T01:44:41.078Z,9.98
2019-04-11T01:47:13.317Z,10.05
2019-04-11T01:49:44.069Z,10.12
2019-04-11T01:52:14.009Z,10.14
2019-04-11T01:54:43.863Z,10.26
2019-04-11T01:57:13.883Z,10.34
2019-04-11T01:59:43.822Z,10.40
2019-04-11T02:02:35.069Z,10.44
2019-04-11T02:05:15.275Z,10.49
2019-04-11T02:07:44.926Z,10.50
2019-04-11T02:10:14.814Z,10.48
2019-04-11T02:12:45.568Z,10.49
2019-04-11T02:15:16.386Z,10.49
2019-04-11T02:17:46.731Z,10.47
2019-04-11T02:20:16.695Z,10.43
2019-04-11T02:22:50.715Z,10.42
2019-04-11T02:25:34.486Z,10.41
2019-04-11T02:28:04.494Z,10.36
2019-04-11T02:30:36.323Z,10.35
2019-04-11T02:33:07.651Z,10.29
2019-04-11T02:35:39.944Z,10.21
2019-04-11T02:38:11.794Z,10.18
2019-04-11T02:40:41.619Z,10.19
2019-04-11T02:43:13.264Z,10.16
2019-04-11T02:45:56.956Z,10.18
2019-04-11T02:48:16.186Z,10.22
2019-04-11T02:50:47.631Z,10.25
2019-04-11T02:53:17.546Z,10.23
2019-04-11T02:55:47.454Z,10.25
2019-04-11T02:58:18.538Z,10.27
2019-04-11T03:00:50.280Z,10.33
2019-04-11T03:03:20.906Z,10.39
2019-04-11T03:05:50.899Z,10.37
2019-04-11T03:08:22.681Z,10.34
2019-04-11T03:10:53.494Z,10.37
2019-04-11T03:13:23.470Z,10.39
2019-04-11T03:16:10.154Z,10.37
2019-04-11T03:18:45.836Z,10.35
2019-04-11T03:21:02.817Z,10.40
2019-04-11T03:23:28.643Z,10.40
2019-04-11T03:25:58.398Z,10.40
2019-04-11T03:28:30.786Z,10.37
2019-04-11T03:31:38.232Z,10.35
2019-04-11T03:38:55.465Z,10.19
2019-04-11T03:41:23.479Z,10.09
2019-04-11T03:43:48.635Z,10.05
2019-04-11T03:46:25.028Z,10.02
2019-04-11T03:48:51.192Z,9.95
2019-04-11T03:51:11.091Z,9.89
2019-04-11T03:53:43.112Z,9.87
2019-04-11T03:56:14.033Z,9.86
2019-04-11T03:58:43.995Z,9.87
2019-04-11T04:01:16.297Z,9.90
2019-04-11T04:03:46.757Z,9.93
2019-04-11T04:06:19.214Z,9.91
2019-04-11T04:08:50.653Z,9.91
2019-04-11T04:11:25.264Z,9.95
2019-04-11T04:14:17.697Z,9.94
2019-04-11T04:17:03.835Z,9.97
2019-04-11T04:19:51.711Z,10.00
2019-04-11T04:22:35.704Z,10.07
2019-04-11T04:25:05.702Z,10.15
2019-04-11T04:27:35.399Z,10.21
2019-04-11T04:30:06.077Z,10.26
2019-04-11T04:32:36.363Z,10.36
2019-04-11T04:35:10.414Z,10.44
2019-04-11T04:37:38.763Z,10.48
2019-04-11T04:40:23.960Z,10.53
2019-04-11T04:42:45.707Z,10.59
2019-04-11T04:45:13.756Z,10.64
2019-04-11T04:47:51.433Z,10.67
2019-04-11T04:50:14.155Z,10.69
2019-04-11T04:52:44.983Z,10.77
2019-04-11T04:55:14.795Z,10.88
2019-04-11T04:57:44.960Z,10.96
2019-04-11T05:00:15.259Z,11.17
2019-04-11T05:02:44.885Z,11.33
2019-04-11T05:05:14.591Z,11.49
2019-04-11T05:07:46.351Z,11.66
2019-04-11T05:10:15.622Z,11.95
2019-04-11T05:12:46.111Z,12.19
2019-04-11T05:15:16.675Z,12.40
2019-04-11T05:17:46.601Z,12.60
2019-04-11T05:20:16.379Z,12.83
2019-04-11T05:22:47.149Z,13.13
2019-04-11T05:25:18.110Z,13.44
2019-04-11T05:27:47.875Z,13.67
2019-04-11T05:30:18.666Z,13.85
2019-04-11T05:32:49.325Z,14.07
2019-04-11T05:35:18.971Z,14.30
2019-04-11T05:37:48.718Z,14.31
2019-04-11T05:40:18.349Z,14.21
2019-04-11T05:42:53.413Z,14.35
2019-04-11T05:45:22.627Z,14.48
2019-04-11T05:47:54.675Z,14.35
2019-04-11T05:50:32.010Z,14.30
2019-04-11T05:53:03.944Z,14.14
2019-04-11T05:55:36.426Z,14.04
2019-04-11T05:58:10.695Z,13.95
2019-04-11T06:00:57.790Z,13.94
2019-04-11T06:03:28.291Z,13.93
2019-04-11T06:06:26.720Z,13.81
2019-04-11T06:09:00.749Z,13.70
2019-04-11T06:11:52.311Z,13.50
2019-04-11T06:14:28.559Z,13.41
2019-04-11T06:17:01.936Z,13.33
2019-04-11T06:19:42.306Z,13.27
2019-04-11T06:22:12.798Z,13.21
2019-04-11T06:25:00.577Z,13.23
2019-04-11T06:27:49.544Z,13.24
2019-04-11T06:30:37.294Z,13.27
2019-04-11T06:33:22.690Z,13.29
2019-04-11T06:36:14.052Z,13.34
2019-04-11T06:38:47.285Z,13.34
2019-04-11T06:41:34.783Z,13.23
2019-04-11T06:44:26.245Z,13.21
2019-04-11T06:47:06.512Z,13.18
2019-04-11T06:49:55.091Z,13.22
2019-04-11T06:52:26.573Z,13.22
2019-04-11T06:55:14.894Z,13.18
2019-04-11T06:57:45.876Z,13.22
2019-04-11T07:00:16.954Z,13.26
2019-04-11T07:02:53.251Z,13.30
2019-04-11T07:05:24.714Z,13.29
2019-04-11T07:07:55.720Z,13.19
2019-04-11T07:10:30.880Z,13.09
2019-04-11T07:13:19.296Z,12.95
2019-04-11T07:15:52.758Z,12.86
2019-04-11T07:18:40.100Z,12.83
2019-04-11T07:21:19.078Z,12.75
2019-04-11T07:24:07.414Z,12.72
2019-04-11T07:26:50.241Z,12.72
2019-04-11T07:29:37.917Z,12.75
2019-04-11T07:32:22.359Z,12.72
2019-04-11T07:35:10.855Z,12.67
2019-04-11T07:37:53.175Z,12.70
2019-04-11T07:40:41.217Z,12.84
2019-04-11T07:43:33.534Z,12.81
2019-04-11T07:46:26.105Z,12.90
2019-04-11T07:49:08.011Z,12.98
2019-04-11T07:51:42.866Z,13.04
2019-04-11T07:54:20.352Z,13.16
2019-04-11T07:57:14.977Z,13.20
2019-04-11T08:00:03.868Z,13.38
2019-04-11T08:03:07.655Z,13.53
2019-04-11T08:05:54.917Z,13.59
2019-04-11T08:08:41.663Z,13.50
2019-04-11T08:11:36.120Z,13.50
2019-04-11T08:14:18.223Z,13.61
2019-04-11T08:17:05.753Z,13.70
2019-04-11T08:19:53.231Z,13.71
2019-04-11T08:22:36.957Z,13.78
2019-04-11T08:25:13.987Z,13.76
2019-04-11T08:27:55.960Z,13.87
2019-04-11T08:30:20.682Z,14.13
2019-04-11T08:33:00.907Z,14.41
2019-04-11T08:35:52.975Z,14.53
2019-04-11T08:38:26.679Z,14.57
2019-04-11T08:41:03.455Z,14.73
2019-04-11T08:43:35.145Z,14.85
2019-04-11T08:46:08.912Z,14.85
2019-04-11T08:48:41.165Z,14.82
2019-04-11T08:51:12.378Z,14.92
2019-04-11T08:53:55.863Z,15.06
2019-04-11T08:56:25.568Z,15.22
2019-04-11T08:59:46.142Z,15.20
2019-04-11T09:02:27.350Z,15.06
2019-04-11T09:05:15.700Z,14.78
2019-04-11T09:08:18.347Z,14.78
2019-04-11T09:11:12.730Z,14.74
2019-04-11T09:13:59.846Z,14.59
2019-04-11T09:17:03.859Z,14.40
2019-04-11T09:20:11.527Z,14.15
2019-04-11T09:22:59.528Z,13.97
2019-04-11T09:25:50.460Z,13.75
2019-04-11T09:28:19.786Z,13.59
2019-04-11T09:31:17.150Z,13.41
2019-04-11T09:34:01.647Z,13.28
2019-04-11T09:37:03.159Z,13.18
2019-04-11T09:39:55.226Z,13.31
2019-04-11T09:42:34.655Z,13.36
2019-04-11T09:45:23.679Z,13.42
2019-04-11T09:48:15.029Z,13.51
2019-04-11T09:51:17.718Z,13.58
2019-04-11T09:53:52.818Z,13.62
2019-04-11T09:56:41.320Z,13.75
2019-04-11T09:59:16.423Z,13.92
2019-04-11T10:02:10.177Z,14.23
2019-04-11T10:04:39.870Z,14.53
2019-04-11T10:07:31.361Z,14.79
2019-04-11T10:10:18.970Z,15.04
2019-04-11T10:13:06.817Z,15.08
2019-04-11T10:15:56.222Z,15.23
2019-04-11T10:18:55.677Z,15.34
2019-04-11T10:21:25.924Z,15.28
2019-04-11T10:24:20.987Z,15.24
2019-04-11T10:26:58.463Z,15.17
2019-04-11T10:29:48.137Z,15.27
2019-04-11T10:32:21.263Z,15.33
2019-04-11T10:35:10.200Z,15.16
2019-04-11T10:37:42.200Z,14.99
2019-04-11T10:40:30.228Z,14.85
2019-04-11T10:43:01.013Z,14.73
2019-04-11T10:45:38.569Z,14.57
2019-04-11T10:48:09.631Z,14.33
2019-04-11T10:51:08.753Z,14.24
2019-04-11T10:53:39.439Z,14.20
2019-04-11T10:56:47.551Z,14.25
2019-04-11T10:59:17.591Z,14.25
2019-04-11T11:02:06.650Z,14.33
2019-04-11T11:04:43.060Z,14.36
2019-04-11T11:07:21.484Z,14.51
2019-04-11T11:10:15.641Z,14.53
2019-04-11T11:13:16.402Z,14.59
2019-04-11T11:15:52.670Z,14.67
2019-04-11T11:19:07.523Z,14.77
2019-04-11T11:21:18.166Z,14.87
2019-04-11T11:24:07.345Z,14.97
2019-04-11T11:26:39.048Z,14.91
2019-04-11T11:29:37.130Z,14.84
2019-04-11T11:32:21.058Z,14.91
2019-04-11T11:35:10.724Z,14.99
2019-04-11T11:38:06.022Z,15.08
2019-04-11T11:40:54.637Z,15.05
2019-04-11T11:43:29.283Z,14.92
2019-04-11T11:46:17.796Z,14.66
2019-04-11T11:49:12.210Z,14.45
2019-04-11T11:52:11.114Z,14.41
2019-04-11T11:54:46.027Z,14.36
2019-04-11T11:57:21.115Z,14.31
2019-04-11T11:59:55.067Z,14.25
2019-04-11T12:02:38.980Z,14.14
2019-04-11T12:05:34.719Z,14.00
2019-04-11T12:08:29.063Z,14.10
2019-04-11T12:11:02.025Z,14.27
2019-04-11T12:13:51.613Z,14.42
2019-04-11T12:16:43.869Z,14.66
2019-04-11T12:19:24.752Z,15.00
2019-04-11T12:21:55.997Z,15.23
2019-04-11T12:24:53.642Z,15.35
2019-04-11T12:27:42.161Z,15.40
2019-04-11T12:30:48.816Z,15.33
2019-04-11T12:33:37.431Z,15.30
2019-04-11T12:36:12.593Z,15.30
2019-04-11T12:38:54.683Z,15.45
2019-04-11T12:41:42.264Z,15.63
2019-04-11T12:44:30.409Z,15.65
2019-04-11T12:47:11.587Z,15.63
2019-04-11T12:49:59.091Z,15.79
2019-04-11T12:52:38.766Z,15.85
2019-04-11T12:55:10.013Z,15.73
2019-04-11T12:58:07.015Z,15.43
2019-04-11T13:00:50.402Z,15.49
2019-04-11T13:03:51.437Z,15.54
2019-04-11T13:06:35.155Z,15.49
2019-04-11T13:09:22.765Z,15.41
2019-04-11T13:11:52.951Z,15.18
2019-04-11T13:14:41.337Z,15.04
2019-04-11T13:17:14.081Z,14.76
2019-04-11T13:20:11.549Z,14.51
2019-04-11T13:22:42.184Z,14.46
2019-04-11T13:25:39.660Z,14.33
2019-04-11T13:28:09.340Z,14.37
2019-04-11T13:30:57.673Z,14.39
2019-04-11T13:33:28.289Z,14.39
2019-04-11T13:36:12.649Z,14.39
2019-04-11T13:38:44.128Z,14.33
2019-04-11T13:41:31.218Z,14.23
2019-04-11T13:44:15.869Z,14.21
2019-04-11T13:47:19.519Z,14.11
2019-04-11T13:49:51.330Z,14.05
2019-04-11T13:52:45.619Z,14.12
2019-04-11T13:55:22.735Z,14.19
2019-04-11T13:58:11.104Z,14.28
2019-04-11T14:00:48.169Z,14.34
2019-04-11T14:03:39.188Z,14.39
2019-04-11T14:06:30.596Z,14.35
2019-04-11T14:09:24.825Z,14.45
2019-04-11T14:11:59.056Z,14.44
2019-04-11T14:14:34.854Z,14.41
2019-04-11T14:17:12.022Z,14.57
2019-04-11T14:20:04.146Z,14.66
2019-04-11T14:22:43.414Z,14.74
2019-04-11T14:25:28.210Z,14.74
2019-04-11T14:27:59.792Z,14.77
2019-04-11T14:30:51.553Z,14.83
2019-04-11T14:33:18.351Z,14.75
2019-04-11T14:36:05.650Z,14.77
2019-04-11T14:38:45.649Z,14.72
2019-04-11T14:41:25.668Z,14.61
2019-04-11T14:43:59.291Z,14.44
2019-04-11T14:47:06.852Z,14.43
2019-04-11T14:49:40.585Z,14.45
2019-04-11T14:52:36.310Z,14.46
2019-04-11T14:55:08.620Z,14.39
2019-04-11T14:57:46.867Z,14.20
2019-04-11T15:00:36.973Z,14.01
2019-04-11T15:03:34.333Z,13.93
2019-04-11T15:06:32.013Z,13.81
2019-04-11T15:09:29.693Z,13.75
2019-04-11T15:12:11.660Z,13.71
2019-04-11T15:15:00.146Z,13.56
2019-04-11T15:17:37.390Z,13.56
2019-04-11T15:20:26.980Z,13.52
2019-04-11T15:23:06.984Z,13.43
2019-04-11T15:26:08.804Z,13.35
2019-04-11T15:28:53.176Z,13.14
2019-04-11T15:31:39.632Z,13.11
2019-04-11T15:34:22.599Z,13.06
2019-04-11T15:37:03.998Z,12.99
2019-04-11T15:39:58.198Z,12.93
2019-04-11T15:42:41.101Z,12.92
2019-04-11T15:45:25.802Z,12.93
2019-04-11T15:48:11.321Z,12.97
2019-04-11T15:51:06.574Z,12.98
2019-04-11T15:53:41.680Z,12.94
2019-04-11T15:56:42.399Z,12.96
2019-04-11T15:59:30.912Z,12.94
2019-04-11T16:02:18.208Z,12.92
2019-04-11T16:05:02.830Z,12.89
2019-04-11T16:07:49.956Z,12.90
2019-04-11T16:10:19.738Z,12.84
2019-04-11T16:12:56.146Z,12.79
2019-04-11T16:15:26.013Z,12.77
2019-04-11T16:18:19.075Z,12.78
2019-04-11T16:20:51.609Z,12.81
2019-04-11T16:23:40.213Z,12.79
2019-04-11T16:26:13.505Z,12.81
2019-04-11T16:29:00.814Z,12.80
2019-04-11T16:31:37.822Z,12.77
2019-04-11T16:34:15.922Z,12.76
2019-04-11T16:37:04.117Z,12.76
2019-04-11T16:39:54.716Z,12.75
2019-04-11T16:42:40.803Z,12.73
2019-04-11T16:45:38.354Z,12.67
2019-04-11T16:48:08.082Z,12.68
2019-04-11T16:50:37.624Z,12.63
2019-04-11T16:53:10.554Z,12.63
2019-04-11T16:55:41.959Z,12.63
2019-04-11T16:58:09.667Z,12.62
2019-04-11T17:00:39.361Z,12.60
2019-04-11T17:03:09.068Z,12.55
2019-04-11T17:05:40.309Z,12.52
2019-04-11T17:08:27.456Z,12.52
2019-04-11T17:11:08.622Z,12.51
2019-04-11T17:13:38.183Z,12.53
2019-04-11T17:16:10.686Z,12.51
2019-04-11T17:18:40.348Z,12.46
2019-04-11T17:21:10.161Z,12.49
2019-04-11T17:23:39.809Z,12.52
2019-04-11T17:26:09.456Z,12.52
2019-04-11T17:28:39.002Z,12.52
2019-04-11T17:31:08.561Z,12.53
2019-04-11T17:33:38.100Z,12.53
2019-04-11T17:36:07.663Z,12.54
2019-04-11T17:38:37.835Z,12.54
2019-04-11T17:41:11.110Z,12.52
2019-04-11T17:43:38.857Z,12.55
2019-04-11T17:46:08.529Z,12.53
2019-04-11T17:48:38.071Z,12.54
2019-04-11T17:51:09.576Z,12.52
2019-04-11T17:53:38.939Z,12.50
2019-04-11T17:56:08.472Z,12.48
2019-04-11T17:58:38.128Z,12.45
2019-04-11T18:01:07.825Z,12.42
2019-04-11T18:03:37.363Z,12.30
2019-04-11T18:06:06.975Z,12.30
2019-04-11T18:08:36.513Z,12.33
2019-04-11T18:11:06.230Z,12.29
2019-04-11T18:13:35.870Z,12.29
2019-04-11T18:16:05.560Z,12.27
2019-04-11T18:18:35.846Z,12.27
2019-04-11T18:21:07.346Z,12.25
2019-04-11T18:23:36.975Z,12.26
2019-04-11T18:26:06.641Z,12.28
2019-04-11T18:28:36.184Z,12.27
2019-04-11T18:31:05.855Z,12.26
2019-04-11T18:33:35.408Z,12.28
2019-04-11T18:36:04.962Z,12.27
2019-04-11T18:38:34.505Z,12.25
2019-04-11T18:41:04.495Z,12.27
2019-04-11T18:43:34.063Z,12.25
2019-04-11T18:46:03.684Z,12.22
2019-04-11T18:48:33.254Z,12.26
2019-04-11T18:51:02.786Z,12.28
2019-04-11T18:53:32.387Z,12.30
2019-04-11T18:56:01.954Z,12.31
2019-04-11T18:58:33.681Z,12.31
2019-04-11T19:01:03.473Z,12.33
2019-04-11T19:03:36.433Z,12.33
2019-04-11T19:06:04.446Z,12.32
2019-04-11T19:08:34.069Z,12.32
2019-04-11T19:11:03.717Z,12.31
2019-04-11T19:13:33.293Z,12.25
2019-04-11T19:16:02.849Z,12.22
2019-04-11T19:18:32.377Z,12.24
2019-04-11T19:21:01.963Z,12.27
2019-04-11T19:23:31.518Z,12.27
2019-04-11T19:26:01.060Z,12.27
2019-04-11T19:28:30.633Z,12.30
2019-04-11T19:31:00.231Z,12.30
2019-04-11T19:33:34.030Z,12.31
2019-04-11T19:36:01.215Z,12.22
2019-04-11T19:38:33.131Z,12.29
2019-04-11T19:41:02.692Z,12.28
2019-04-11T19:43:32.300Z,12.25
2019-04-11T19:46:01.891Z,12.25
2019-04-11T19:48:31.526Z,12.24
2019-04-11T19:51:01.093Z,12.30
2019-04-11T19:53:32.950Z,12.36
2019-04-11T19:56:32.942Z,12.38
2019-04-11T19:59:02.723Z,12.43
2019-04-11T20:01:32.347Z,12.44
2019-04-11T20:04:01.929Z,12.43
2019-04-11T20:06:31.616Z,12.46
2019-04-11T20:09:01.220Z,12.47
2019-04-11T20:11:30.775Z,12.48
2019-04-11T20:14:02.843Z,12.45
2019-04-11T20:16:41.055Z,12.45
2019-04-11T20:19:03.008Z,12.43
2019-04-11T20:21:32.577Z,12.42
2019-04-11T20:24:02.335Z,12.46
2019-04-11T20:26:31.988Z,12.48
2019-04-11T20:29:01.553Z,12.51
2019-04-11T20:31:31.123Z,12.51
2019-04-11T20:34:01.702Z,12.52
2019-04-11T20:36:33.635Z,12.52
2019-04-11T20:39:05.004Z,12.54
2019-04-11T20:41:34.608Z,12.54
2019-04-11T20:44:04.177Z,12.52
2019-04-11T20:46:33.826Z,12.50
2019-04-11T20:49:03.403Z,12.47
2019-04-11T20:51:33.042Z,12.46
2019-04-11T20:54:06.951Z,12.45
2019-04-11T20:56:33.862Z,12.46
2019-04-11T20:59:03.443Z,12.45
2019-04-11T21:01:33.007Z,12.47
2019-04-11T21:04:04.696Z,12.46
2019-04-11T21:06:34.070Z,12.48
2019-04-11T21:09:05.161Z,12.52
2019-04-11T21:11:37.139Z,12.52
2019-04-11T21:14:06.089Z,12.53
2019-04-11T21:16:35.677Z,12.53
2019-04-11T21:19:05.284Z,12.51
2019-04-11T21:21:34.890Z,12.50
2019-04-11T21:24:04.600Z,12.51
2019-04-11T21:26:34.304Z,12.51
2019-04-11T21:29:03.945Z,12.51
2019-04-11T21:31:33.567Z,12.51
2019-04-11T21:34:03.112Z,12.48
2019-04-11T21:36:32.665Z,12.47
2019-04-11T21:39:03.791Z,12.50
2019-04-11T21:41:36.063Z,12.53
2019-04-11T21:44:06.186Z,12.53
2019-04-11T21:46:38.156Z,12.54
2019-04-11T21:49:07.640Z,12.55
2019-04-11T21:51:41.444Z,12.57
2019-04-11T21:54:08.546Z,12.59
2019-04-11T21:56:38.193Z,12.61
2019-04-11T21:59:07.721Z,12.63
2019-04-11T22:01:37.269Z,12.62
2019-04-11T22:04:06.845Z,12.60
2019-04-11T22:06:36.387Z,12.61
2019-04-11T22:09:06.944Z,12.61
2019-04-11T22:11:38.422Z,12.63
2019-04-11T22:14:10.964Z,12.62
2019-04-11T22:16:39.092Z,12.61
2019-04-11T22:19:08.658Z,12.61
2019-04-11T22:21:38.307Z,12.61
2019-04-11T22:24:07.887Z,12.59
2019-04-11T22:26:37.582Z,12.56
2019-04-11T22:29:07.123Z,12.56
2019-04-11T22:31:36.780Z,12.58
2019-04-11T22:34:12.000Z,12.56
2019-04-11T22:36:41.610Z,12.58
2019-04-11T22:39:11.770Z,12.56
2019-04-11T22:41:41.352Z,12.59
2019-04-11T22:44:10.907Z,12.58
2019-04-11T22:46:40.553Z,12.56
2019-04-11T22:49:10.207Z,12.57
2019-04-11T22:51:42.675Z,12.60
2019-04-11T22:54:13.165Z,12.58
2019-04-11T22:56:42.535Z,12.57
2019-04-11T22:59:14.025Z,12.56
2019-04-11T23:01:46.586Z,12.51
2019-04-11T23:04:16.628Z,12.48
2019-04-11T23:06:44.942Z,12.43
2019-04-11T23:09:16.602Z,12.43
2019-04-11T23:11:47.184Z,12.42
2019-04-11T23:14:16.943Z,12.47
2019-04-11T23:16:46.596Z,12.51
2019-04-11T23:19:16.164Z,12.50
2019-04-11T23:21:45.843Z,12.49
2019-04-11T23:24:15.481Z,12.39
2019-04-11T23:26:45.175Z,12.37
2019-04-11T23:29:16.134Z,12.31
2019-04-11T23:31:46.437Z,12.27
2019-04-11T23:34:15.993Z,12.24
2019-04-11T23:36:45.701Z,12.20
2019-04-11T23:39:15.307Z,12.21
2019-04-11T23:41:45.023Z,12.19
2019-04-11T23:44:14.585Z,12.12
2019-04-11T23:46:44.138Z,12.14
2019-04-11T23:49:13.736Z,12.19
2019-04-11T23:51:43.396Z,12.14
2019-04-11T23:54:22.762Z,12.16
2019-04-11T23:56:44.283Z,12.14
2019-04-11T23:59:13.857Z,12.17
